createdAt,value
2022-09-24T00:01:35.310Z,61.87
2022-09-24T00:04:40.845Z,61.81
2022-09-24T00:07:47.458Z,61.88
2022-09-24T00:10:55.768Z,62.50
2022-09-24T00:14:04.282Z,62.28
2022-09-24T00:17:11.946Z,62.13
2022-09-24T00:20:17.014Z,62.02
2022-09-24T00:23:23.077Z,62.11
2022-09-24T00:26:35.769Z,62.70
2022-09-24T00:29:42.972Z,62.59
2022-09-24T00:32:48.728Z,62.69
2022-09-24T00:35:53.631Z,62.83
2022-09-24T00:39:01.973Z,62.65
2022-09-24T00:42:07.453Z,62.85
2022-09-24T00:45:13.012Z,63.09
2022-09-24T00:48:18.346Z,63.38
2022-09-24T00:51:23.279Z,63.48
2022-09-24T00:54:29.170Z,63.65
2022-09-24T00:57:35.398Z,63.60
2022-09-24T01:00:40.414Z,63.50
2022-09-24T01:03:47.703Z,63.39
2022-09-24T01:06:53.929Z,63.91
2022-09-24T01:09:53.500Z,64.04
2022-09-24T01:13:08.215Z,64.27
2022-09-24T01:16:20.495Z,64.25
2022-09-24T01:19:59.205Z,63.77
2022-09-24T01:23:48.610Z,63.73
2022-09-24T01:27:08.524Z,64.07
2022-09-24T01:30:22.913Z,63.41
2022-09-24T01:33:32.607Z,63.04
2022-09-24T01:36:38.184Z,63.09
2022-09-24T01:39:44.024Z,63.05
2022-09-24T01:42:49.124Z,62.97
2022-09-24T01:45:55.190Z,62.88
2022-09-24T01:49:01.091Z,62.72
2022-09-24T01:52:09.544Z,62.97
2022-09-24T01:55:15.908Z,63.29
2022-09-24T01:58:26.138Z,63.33
2022-09-24T02:01:33.297Z,63.16
2022-09-24T02:04:37.682Z,63.66
2022-09-24T02:07:51.026Z,64.40
2022-09-24T02:11:07.571Z,64.00
2022-09-24T02:14:27.216Z,64.46
2022-09-24T02:17:32.840Z,63.85
2022-09-24T02:20:40.207Z,64.55
2022-09-24T02:23:46.765Z,64.85
2022-09-24T02:26:53.556Z,65.08
2022-09-24T02:30:00.295Z,65.26
2022-09-24T02:33:06.982Z,65.28
2022-09-24T02:36:12.555Z,65.19
2022-09-24T02:39:18.165Z,65.07
2022-09-24T02:42:24.433Z,65.18
2022-09-24T02:45:31.184Z,65.17
2022-09-24T02:48:36.327Z,64.92
2022-09-24T02:51:42.140Z,64.48
2022-09-24T02:54:48.111Z,64.52
2022-09-24T02:57:54.580Z,64.46
2022-09-24T03:01:02.462Z,64.28
2022-09-24T03:04:09.094Z,63.88
2022-09-24T03:07:06.869Z,64.12
2022-09-24T03:10:01.507Z,64.00
2022-09-24T03:13:07.392Z,64.13
2022-09-24T03:16:13.403Z,64.32
2022-09-24T03:19:12.771Z,64.20
2022-09-24T03:22:18.528Z,63.92
2022-09-24T03:25:24.458Z,64.11
2022-09-24T03:28:29.137Z,63.79
2022-09-24T03:31:35.702Z,64.24
2022-09-24T03:34:42.176Z,64.47
2022-09-24T03:37:49.701Z,65.14
2022-09-24T03:40:54.918Z,64.86
2022-09-24T03:44:01.361Z,64.98
2022-09-24T03:47:08.965Z,65.33
2022-09-24T03:50:16.399Z,65.01
2022-09-24T03:53:22.611Z,64.41
2022-09-24T03:56:27.215Z,64.49
2022-09-24T03:59:33.410Z,64.20
2022-09-24T04:02:39.519Z,64.16
2022-09-24T04:05:45.414Z,64.04
2022-09-24T04:08:51.008Z,64.03
2022-09-24T04:11:58.747Z,64.68
2022-09-24T04:15:04.552Z,64.87
2022-09-24T04:18:12.091Z,65.02
2022-09-24T04:21:17.915Z,65.28
2022-09-24T04:24:24.170Z,65.48
2022-09-24T04:27:31.081Z,65.68
2022-09-24T04:30:37.199Z,65.83
2022-09-24T04:33:43.115Z,65.86
2022-09-24T04:36:49.643Z,66.08
2022-09-24T04:39:55.638Z,65.98
2022-09-24T04:43:01.670Z,66.15
2022-09-24T04:46:11.741Z,66.49
2022-09-24T04:49:17.198Z,66.67
2022-09-24T04:52:23.729Z,66.65
2022-09-24T04:55:29.261Z,66.60
2022-09-24T04:58:35.145Z,66.67
2022-09-24T05:01:40.579Z,66.52
2022-09-24T05:04:47.122Z,66.59
2022-09-24T05:07:53.193Z,66.24
2022-09-24T05:11:01.303Z,66.08
2022-09-24T05:14:08.029Z,65.80
2022-09-24T05:19:48.812Z,64.79
2022-09-24T05:22:59.611Z,64.87
2022-09-24T05:26:21.806Z,64.95
2022-09-24T05:29:28.056Z,65.28
2022-09-24T05:32:34.869Z,65.56
2022-09-24T05:35:40.241Z,65.29
2022-09-24T05:38:45.625Z,65.43
2022-09-24T05:41:51.671Z,65.52
2022-09-24T05:44:57.627Z,64.79
2022-09-24T05:48:03.059Z,64.32
2022-09-24T05:51:08.597Z,63.99
2022-09-24T05:54:14.881Z,63.83
2022-09-24T05:57:21.670Z,63.61
2022-09-24T06:00:27.955Z,62.88
2022-09-24T06:03:36.679Z,62.62
2022-09-24T06:06:42.279Z,62.28
2022-09-24T06:09:48.630Z,61.52
2022-09-24T06:12:57.186Z,61.31
2022-09-24T06:16:03.199Z,60.64
2022-09-24T06:19:08.323Z,59.13
2022-09-24T06:22:13.691Z,58.39
2022-09-24T06:25:22.361Z,57.88
2022-09-24T06:28:27.678Z,57.14
2022-09-24T06:31:33.524Z,56.88
2022-09-24T06:34:38.895Z,56.05
2022-09-24T06:37:38.384Z,56.25
2022-09-24T06:40:44.003Z,55.51
2022-09-24T06:43:50.669Z,54.58
2022-09-24T06:46:57.359Z,54.16
2022-09-24T06:50:03.912Z,54.22
2022-09-24T06:53:09.815Z,54.17
2022-09-24T06:56:15.441Z,53.72
2022-09-24T06:59:20.938Z,53.55
2022-09-24T07:02:26.635Z,53.69
2022-09-24T07:05:32.598Z,53.96
2022-09-24T07:08:38.616Z,54.44
2022-09-24T07:11:44.564Z,54.54
2022-09-24T07:14:49.634Z,54.61
2022-09-24T07:17:55.765Z,54.57
2022-09-24T07:21:05.916Z,54.56
2022-09-24T07:24:12.080Z,54.70
2022-09-24T07:27:21.363Z,55.06
2022-09-24T07:30:27.016Z,55.21
2022-09-24T07:33:33.656Z,55.45
2022-09-24T07:36:41.323Z,53.55
2022-09-24T07:39:47.034Z,52.79
2022-09-24T07:42:55.329Z,52.85
2022-09-24T07:46:02.551Z,52.95
2022-09-24T07:49:08.969Z,51.12
2022-09-24T07:52:14.622Z,50.96
2022-09-24T07:55:20.693Z,50.27
2022-09-24T07:58:29.066Z,49.36
2022-09-24T08:01:34.137Z,49.74
2022-09-24T08:04:39.552Z,49.44
2022-09-24T08:07:46.127Z,49.20
2022-09-24T08:10:52.768Z,49.20
2022-09-24T08:13:59.639Z,49.02
2022-09-24T08:17:05.642Z,48.84
2022-09-24T08:20:12.149Z,48.78
2022-09-24T08:23:22.822Z,49.23
2022-09-24T08:26:29.622Z,49.54
2022-09-24T08:29:35.219Z,49.38
2022-09-24T08:32:39.905Z,49.45
2022-09-24T08:35:47.732Z,49.29
2022-09-24T08:38:52.668Z,48.93
2022-09-24T08:42:14.563Z,48.51
2022-09-24T08:45:39.666Z,48.99
2022-09-24T08:48:47.053Z,48.51
2022-09-24T08:52:01.224Z,48.15
2022-09-24T08:55:08.991Z,47.59
2022-09-24T08:58:22.104Z,47.39
2022-09-24T09:01:28.719Z,47.17
2022-09-24T09:04:38.828Z,46.59
2022-09-24T09:07:58.353Z,46.68
2022-09-24T09:11:09.116Z,46.82
2022-09-24T09:14:28.050Z,46.78
2022-09-24T09:17:57.189Z,46.50
2022-09-24T09:21:04.506Z,46.11
2022-09-24T09:24:11.633Z,45.84
2022-09-24T09:27:16.964Z,46.42
2022-09-24T09:30:26.651Z,46.36
2022-09-24T09:33:52.021Z,45.79
2022-09-24T09:37:35.688Z,45.62
2022-09-24T09:40:58.588Z,45.60
2022-09-24T09:44:04.874Z,45.65
2022-09-24T09:47:36.537Z,45.61
2022-09-24T09:50:56.710Z,46.17
2022-09-24T09:54:16.503Z,45.36
2022-09-24T09:57:25.479Z,44.91
2022-09-24T10:00:48.599Z,45.14
2022-09-24T10:04:03.431Z,45.05
2022-09-24T10:07:27.691Z,44.91
2022-09-24T10:10:35.295Z,45.24
2022-09-24T10:13:41.934Z,44.55
2022-09-24T10:16:58.574Z,44.46
2022-09-24T10:20:04.353Z,44.36
2022-09-24T10:23:22.006Z,44.16
2022-09-24T10:26:27.895Z,44.72
2022-09-24T10:30:01.218Z,44.39
2022-09-24T10:33:15.717Z,44.36
2022-09-24T10:36:24.584Z,43.77
2022-09-24T10:39:31.279Z,44.05
2022-09-24T10:42:45.149Z,42.55
2022-09-24T10:46:24.380Z,42.62
2022-09-24T10:49:53.458Z,42.23
2022-09-24T10:53:08.061Z,41.45
2022-09-24T10:56:46.540Z,41.89
2022-09-24T10:59:58.513Z,41.52
2022-09-24T11:03:24.768Z,41.59
2022-09-24T11:06:51.421Z,41.81
2022-09-24T11:10:20.157Z,41.02
2022-09-24T11:13:37.136Z,41.24
2022-09-24T11:16:58.999Z,41.81
2022-09-24T11:20:22.414Z,41.59
2022-09-24T11:23:51.109Z,41.29
2022-09-24T11:27:23.250Z,40.82
2022-09-24T11:30:36.631Z,40.98
2022-09-24T11:34:06.166Z,41.42
2022-09-24T11:37:44.887Z,42.34
2022-09-24T11:41:20.746Z,47.05
2022-09-24T11:44:58.885Z,48.93
2022-09-24T11:48:10.447Z,48.89
2022-09-24T11:51:25.355Z,51.86
2022-09-24T11:54:41.816Z,54.04
2022-09-24T11:58:00.246Z,56.02
2022-09-24T12:01:22.390Z,57.57
2022-09-24T12:04:32.873Z,57.82
2022-09-24T12:07:47.227Z,58.74
2022-09-24T12:10:58.210Z,59.66
2022-09-24T12:14:29.224Z,59.50
2022-09-24T12:17:51.716Z,60.17
2022-09-24T12:21:13.655Z,60.24
2022-09-24T12:24:30.152Z,60.37
2022-09-24T12:27:42.132Z,61.02
2022-09-24T12:31:15.155Z,60.73
2022-09-24T12:34:44.373Z,60.35
2022-09-24T12:37:54.766Z,59.11
2022-09-24T12:41:13.814Z,58.29
2022-09-24T12:44:31.547Z,57.98
2022-09-24T12:47:47.332Z,57.67
2022-09-24T12:50:54.104Z,57.39
2022-09-24T12:54:02.097Z,56.53
2022-09-24T12:57:02.221Z,56.31
2022-09-24T13:00:12.720Z,55.99
2022-09-24T13:03:19.294Z,56.05
2022-09-24T13:06:51.810Z,56.81
2022-09-24T13:09:57.112Z,56.99
2022-09-24T13:13:04.922Z,56.26
2022-09-24T13:16:18.977Z,56.78
2022-09-24T13:19:48.684Z,57.47
2022-09-24T13:22:55.129Z,58.33
2022-09-24T13:26:18.198Z,59.17
2022-09-24T13:29:38.980Z,59.71
2022-09-24T13:32:48.482Z,59.93
2022-09-24T13:36:12.871Z,60.65
2022-09-24T13:39:32.412Z,60.93
2022-09-24T13:42:54.835Z,61.84
2022-09-24T13:46:00.674Z,61.83
2022-09-24T13:49:13.372Z,61.07
2022-09-24T13:52:45.993Z,60.99
2022-09-24T13:55:56.643Z,62.02
2022-09-24T13:59:02.515Z,62.62
2022-09-24T14:02:09.028Z,62.42
2022-09-24T14:05:16.704Z,62.34
2022-09-24T14:08:25.797Z,62.17
2022-09-24T14:11:36.881Z,61.72
2022-09-24T14:14:49.281Z,61.59
2022-09-24T14:17:54.772Z,61.61
2022-09-24T14:21:00.259Z,61.40
2022-09-24T14:24:10.483Z,61.83
2022-09-24T14:27:26.464Z,61.26
2022-09-24T14:30:40.310Z,61.07
2022-09-24T14:33:47.234Z,61.11
2022-09-24T14:36:53.219Z,61.18
2022-09-24T14:40:02.692Z,61.05
2022-09-24T14:43:13.378Z,60.86
2022-09-24T14:46:21.775Z,60.90
2022-09-24T14:49:40.414Z,60.91
2022-09-24T14:52:50.352Z,61.22
2022-09-24T14:55:57.055Z,61.42
2022-09-24T14:59:03.709Z,61.07
2022-09-24T15:02:41.662Z,60.89
2022-09-24T15:05:47.207Z,60.84
2022-09-24T15:08:54.368Z,61.18
2022-09-24T15:12:01.775Z,61.40
2022-09-24T15:15:10.453Z,61.53
2022-09-24T15:18:17.392Z,61.63
2022-09-24T15:21:23.817Z,62.23
2022-09-24T15:24:31.724Z,62.21
2022-09-24T15:27:41.488Z,62.76
2022-09-24T15:30:47.163Z,62.84
2022-09-24T15:33:54.632Z,62.96
2022-09-24T15:37:02.230Z,63.39
2022-09-24T15:40:13.736Z,63.59
2022-09-24T15:43:18.594Z,63.33
2022-09-24T15:46:24.700Z,63.46
2022-09-24T15:49:30.138Z,63.68
2022-09-24T15:52:42.986Z,63.87
2022-09-24T15:55:50.845Z,64.17
2022-09-24T15:58:57.508Z,64.76
2022-09-24T16:02:06.254Z,64.69
2022-09-24T16:05:11.236Z,64.72
2022-09-24T16:08:17.048Z,64.74
2022-09-24T16:11:23.738Z,65.27
2022-09-24T16:14:29.495Z,65.20
2022-09-24T16:17:36.268Z,65.59
2022-09-24T16:20:42.764Z,65.63
2022-09-24T16:23:48.726Z,65.63
2022-09-24T16:26:55.123Z,65.31
2022-09-24T16:30:01.161Z,65.51
2022-09-24T16:33:07.897Z,66.01
2022-09-24T16:36:24.519Z,65.88
2022-09-24T16:39:23.049Z,65.84
2022-09-24T16:42:31.499Z,66.17
2022-09-24T16:45:37.566Z,66.17
2022-09-24T16:48:42.565Z,66.07
2022-09-24T16:51:48.061Z,66.14
2022-09-24T16:54:54.294Z,66.46
2022-09-24T16:57:59.960Z,66.69
2022-09-24T17:01:06.746Z,66.90
2022-09-24T17:04:14.474Z,67.09
2022-09-24T17:07:21.412Z,67.18
2022-09-24T17:10:28.151Z,67.00
2022-09-24T17:13:33.982Z,66.75
2022-09-24T17:16:40.684Z,66.39
2022-09-24T17:19:47.037Z,66.54
2022-09-24T17:22:56.210Z,66.03
2022-09-24T17:26:03.348Z,65.64
2022-09-24T17:29:08.758Z,65.28
2022-09-24T17:32:15.054Z,65.07
2022-09-24T17:35:21.285Z,64.83
2022-09-24T17:38:26.762Z,64.72
2022-09-24T17:41:31.950Z,64.47
2022-09-24T17:44:38.608Z,64.46
2022-09-24T17:47:38.510Z,64.28
2022-09-24T17:50:31.605Z,64.31
2022-09-24T17:53:38.183Z,64.46
2022-09-24T17:56:47.565Z,64.68
2022-09-24T17:59:55.483Z,64.77
2022-09-24T18:03:02.958Z,64.25
2022-09-24T18:06:18.589Z,64.13
2022-09-24T18:09:23.904Z,64.35
2022-09-24T18:12:30.412Z,64.32
2022-09-24T18:15:37.504Z,64.40
2022-09-24T18:18:42.934Z,64.50
2022-09-24T18:21:48.307Z,64.53
2022-09-24T18:24:54.098Z,64.41
2022-09-24T18:27:59.086Z,64.21
2022-09-24T18:31:06.838Z,64.67
2022-09-24T18:34:15.171Z,64.54
2022-09-24T18:37:21.118Z,64.31
2022-09-24T18:40:27.566Z,64.38
2022-09-24T18:43:33.389Z,64.56
2022-09-24T18:46:41.038Z,64.84
2022-09-24T18:49:46.580Z,64.55
2022-09-24T18:52:52.356Z,64.53
2022-09-24T18:55:58.080Z,64.61
2022-09-24T18:59:09.399Z,64.78
2022-09-24T19:02:13.438Z,64.69
2022-09-24T19:05:21.925Z,64.40
2022-09-24T19:08:27.684Z,64.23
2022-09-24T19:11:34.718Z,64.31
2022-09-24T19:14:40.338Z,64.06
2022-09-24T19:17:46.904Z,64.18
2022-09-24T19:20:56.495Z,64.11
2022-09-24T19:24:04.115Z,63.76
2022-09-24T19:27:10.986Z,63.91
2022-09-24T19:30:17.722Z,64.08
2022-09-24T19:33:23.758Z,64.26
2022-09-24T19:36:29.467Z,64.43
2022-09-24T19:39:35.838Z,64.83
2022-09-24T19:42:41.548Z,65.04
2022-09-24T19:45:47.151Z,65.27
2022-09-24T19:48:54.966Z,65.27
2022-09-24T19:52:01.040Z,65.21
2022-09-24T19:55:06.479Z,65.42
2022-09-24T19:58:12.561Z,65.88
2022-09-24T20:01:19.464Z,65.89
2022-09-24T20:04:26.940Z,65.38
2022-09-24T20:07:32.365Z,65.38
2022-09-24T20:10:38.031Z,65.70
2022-09-24T20:13:44.970Z,66.32
2022-09-24T20:16:51.955Z,66.43
2022-09-24T20:19:57.574Z,66.76
2022-09-24T20:23:02.652Z,66.90
2022-09-24T20:26:25.908Z,66.27
2022-09-24T20:29:32.349Z,65.77
2022-09-24T20:32:38.675Z,65.88
2022-09-24T20:35:44.713Z,65.99
2022-09-24T20:38:49.760Z,66.17
2022-09-24T20:41:56.875Z,65.91
2022-09-24T20:45:06.114Z,66.06
2022-09-24T20:48:10.103Z,65.83
2022-09-24T20:51:15.837Z,65.85
2022-09-24T20:54:22.056Z,65.68
2022-09-24T20:57:28.011Z,65.75
2022-09-24T21:00:34.971Z,65.77
2022-09-24T21:03:44.793Z,65.53
2022-09-24T21:06:51.864Z,65.52
2022-09-24T21:09:57.141Z,65.48
2022-09-24T21:13:03.563Z,65.32
2022-09-24T21:16:13.464Z,65.21
2022-09-24T21:19:19.183Z,65.18
2022-09-24T21:22:24.581Z,65.06
2022-09-24T21:25:52.831Z,64.98
2022-09-24T21:28:37.004Z,64.89
2022-09-24T21:31:44.254Z,64.80
2022-09-24T21:34:50.444Z,64.58
2022-09-24T21:37:55.614Z,64.40
2022-09-24T21:41:09.095Z,64.26
2022-09-24T21:44:15.043Z,64.65
2022-09-24T21:47:22.051Z,64.25
2022-09-24T21:50:28.159Z,63.81
2022-09-24T21:53:33.848Z,63.39
2022-09-24T21:56:39.020Z,63.69
2022-09-24T22:00:02.433Z,63.45
2022-09-24T22:03:08.813Z,63.47
2022-09-24T22:06:17.309Z,63.37
2022-09-24T22:09:23.412Z,63.45
2022-09-24T22:12:29.517Z,65.94
2022-09-24T22:15:34.951Z,66.36
2022-09-24T22:18:42.586Z,66.36
2022-09-24T22:21:48.164Z,66.22
2022-09-24T22:24:54.432Z,66.71
2022-09-24T22:28:01.203Z,67.03
2022-09-24T22:31:08.983Z,66.78
2022-09-24T22:34:33.329Z,66.87
2022-09-24T22:37:39.449Z,66.99
2022-09-24T22:40:45.637Z,66.95
2022-09-24T22:43:51.291Z,67.11
2022-09-24T22:46:51.983Z,67.70
2022-09-24T22:49:38.427Z,67.99
2022-09-24T22:52:30.798Z,67.92
2022-09-24T22:55:36.411Z,67.78
2022-09-24T22:58:42.415Z,67.50
2022-09-24T23:01:51.573Z,67.31
2022-09-24T23:04:58.058Z,68.10
2022-09-24T23:08:04.633Z,67.91
2022-09-24T23:11:10.899Z,67.75
2022-09-24T23:14:20.073Z,67.56
2022-09-24T23:17:25.971Z,67.41
2022-09-24T23:20:32.233Z,67.39
2022-09-24T23:23:39.165Z,67.69
2022-09-24T23:26:45.731Z,68.07
2022-09-24T23:29:53.006Z,67.93
2022-09-24T23:32:59.125Z,68.16
2022-09-24T23:36:11.641Z,68.31
2022-09-24T23:39:16.963Z,68.56
2022-09-24T23:42:23.687Z,68.38
2022-09-24T23:45:30.072Z,68.01
2022-09-24T23:48:36.788Z,68.19
2022-09-24T23:51:42.722Z,68.22
2022-09-24T23:54:47.891Z,68.04
2022-09-24T23:57:57.413Z,67.63
